Time;durP1;ratioP1;P1;durP2;ratioP2;P2;SDS_P1;SDS_P2;PMS_P1;PMS_P2;Temp;Humidity;BMP_temperature;BMP_pressure;BME280_temperature;BME280_humidity;BME280_pressure;Samples;Min_cycle;Max_cycle;Signal;HPM_P1;HPM_P2
2021/12/05 00:21:43;;;;;;;2.72;1.05;;;3.60;99.90;;;;;;6161284;23;20021;-94
2021/12/05 00:24:15;;;;;;;1.77;1.25;;;3.60;99.90;;;;;;6135911;23;20019;-95
2021/12/05 00:26:46;;;;;;;0.85;0.57;;;3.60;99.90;;;;;;6133886;23;20021;-93
2021/12/05 00:29:32;;;;;;;0.45;0.43;;;3.80;99.90;;;;;;6134815;23;20049;-95
2021/12/05 00:32:11;;;;;;;1.77;1.15;;;3.60;99.90;;;;;;6136142;23;20013;-94
2021/12/05 00:40:35;;;;;;;0.63;0.50;;;5.00;99.90;;;;;;6164830;22;20064;-93
2021/12/05 00:45:58;;;;;;;0.90;0.82;;;3.70;99.90;;;;;;6162013;22;20474;-95
2021/12/05 00:51:37;;;;;;;0.73;0.68;;;3.70;99.90;;;;;;6163758;23;20078;-96
2021/12/05 00:59:30;;;;;;;0.95;0.82;;;3.80;99.90;;;;;;6163932;23;20072;-95
2021/12/05 01:15:36;;;;;;;1.42;0.90;;;3.90;99.90;;;;;;6046588;23;20159;-94
2021/12/05 01:18:09;;;;;;;0.30;0.30;;;3.50;99.90;;;;;;6148034;23;20334;-93
2021/12/05 01:20:42;;;;;;;0.30;0.30;;;3.50;99.90;;;;;;6154766;23;20049;-94
2021/12/05 01:23:19;;;;;;;0.60;0.60;;;3.50;99.90;;;;;;6139914;23;20056;-93
2021/12/05 01:28:53;;;;;;;0.32;0.32;;;3.40;99.90;;;;;;6164378;23;20103;-93
2021/12/05 01:34:10;;;;;;;0.40;0.40;;;3.40;99.90;;;;;;6164361;23;20048;-95
2021/12/05 01:52:55;;;;;;;1.50;1.20;;;4.40;99.90;;;;;;6165310;23;20021;-94
2021/12/05 01:55:47;;;;;;;0.77;0.70;;;3.50;99.90;;;;;;6140160;23;20122;-95
2021/12/05 02:09:08;;;;;;;0.65;0.60;;;4.00;99.90;;;;;;6160880;23;20031;-96
2021/12/05 02:11:52;;;;;;;0.43;0.43;;;3.60;99.90;;;;;;6136479;23;20016;-95
2021/12/05 02:36:31;;;;;;;1.48;1.38;;;3.60;99.90;;;;;;6162750;22;20036;-94
2021/12/05 02:41:27;;;;;;;1.38;1.23;;;3.60;99.90;;;;;;6162861;23;20404;-94
2021/12/05 02:43:59;;;;;;;1.85;1.50;;;3.50;99.90;;;;;;6139299;23;20056;-94
2021/12/05 02:46:26;;;;;;;1.75;1.65;;;3.60;99.90;;;;;;6139082;22;20009;-93
2021/12/05 02:48:54;;;;;;;0.40;0.40;;;3.50;99.90;;;;;;6138745;23;20066;-95
2021/12/05 02:51:25;;;;;;;6.25;5.68;;;3.60;99.90;;;;;;6140323;23;20055;-95
2021/12/05 02:54:03;;;;;;;1.60;1.10;;;3.50;99.90;;;;;;6140383;23;20024;-94
2021/12/05 02:56:32;;;;;;;0.40;0.40;;;3.50;99.90;;;;;;6140107;23;20023;-95
2021/12/05 02:59:06;;;;;;;0.60;0.50;;;3.40;99.90;;;;;;6116548;23;20021;-95
2021/12/05 03:03:58;;;;;;;0.57;0.50;;;3.40;99.90;;;;;;6164455;23;20028;-93
2021/12/05 03:06:28;;;;;;;0.63;0.63;;;3.30;99.90;;;;;;6139945;23;20024;-93
2021/12/05 03:08:58;;;;;;;2.40;1.95;;;3.30;99.90;;;;;;6140921;23;20442;-96
2021/12/05 03:11:25;;;;;;;8.35;2.10;;;3.30;99.90;;;;;;6140908;23;20016;-95
2021/12/05 03:13:51;;;;;;;3.83;2.92;;;3.30;99.90;;;;;;6190080;23;20020;-93
2021/12/05 03:16:18;;;;;;;1.73;0.57;;;3.30;99.90;;;;;;6139272;23;20048;-93
2021/12/05 03:18:44;;;;;;;1.25;0.90;;;3.20;99.90;;;;;;6139366;23;20031;-95
2021/12/05 03:21:11;;;;;;;1.38;1.02;;;3.60;99.90;;;;;;6139040;23;20369;-95
2021/12/05 03:23:41;;;;;;;0.52;0.47;;;3.20;99.90;;;;;;6139076;23;20041;-95
2021/12/05 03:26:10;;;;;;;0.47;0.47;;;3.20;99.90;;;;;;6139062;23;20017;-94
2021/12/05 03:28:36;;;;;;;0.68;0.68;;;3.20;99.90;;;;;;6139482;23;20013;-95
2021/12/05 03:31:03;;;;;;;0.40;0.40;;;3.10;99.90;;;;;;6140029;23;20009;-94
2021/12/05 03:33:29;;;;;;;4.57;1.52;;;3.20;99.90;;;;;;6140328;23;20341;-94
2021/12/05 03:35:55;;;;;;;2.35;1.00;;;3.10;99.90;;;;;;6164522;22;20021;-95
2021/12/05 03:38:21;;;;;;;14.77;3.45;;;3.00;99.90;;;;;;6115747;23;20035;-94
2021/12/05 03:40:47;;;;;;;1.88;1.30;;;3.00;99.90;;;;;;6164729;23;20013;-95
2021/12/05 03:43:17;;;;;;;1.00;0.90;;;3.00;99.90;;;;;;6139322;23;20070;-95
2021/12/05 03:45:45;;;;;;;0.68;0.68;;;3.00;99.90;;;;;;6139476;23;20031;-94
2021/12/05 03:48:13;;;;;;;1.00;0.90;;;2.90;99.90;;;;;;6139278;23;20034;-94
2021/12/05 03:50:39;;;;;;;3.20;1.15;;;2.80;99.90;;;;;;6140531;23;20038;-92
2021/12/05 03:53:06;;;;;;;0.65;0.60;;;2.80;99.90;;;;;;6164694;22;20024;-95
2021/12/05 03:55:32;;;;;;;0.85;0.80;;;3.40;99.90;;;;;;6139561;23;20066;-94
2021/12/05 03:57:58;;;;;;;1.38;1.27;;;2.70;99.90;;;;;;6139149;23;20037;-94
2021/12/05 04:00:28;;;;;;;6.55;2.08;;;2.70;99.90;;;;;;6160896;23;20024;-94
2021/12/05 04:02:56;;;;;;;0.70;0.65;;;2.60;99.90;;;;;;6139388;23;20017;-94
2021/12/05 04:05:23;;;;;;;0.50;0.50;;;2.60;99.90;;;;;;6139292;23;20484;-94
2021/12/05 04:07:49;;;;;;;3.50;1.80;;;2.60;99.90;;;;;;6163665;23;20016;-94
2021/12/05 04:10:16;;;;;;;0.70;0.70;;;2.60;99.90;;;;;;6140029;23;20017;-94
2021/12/05 04:12:43;;;;;;;1.48;0.63;;;2.50;99.90;;;;;;6139637;23;20024;-93
2021/12/05 04:15:10;;;;;;;1.33;0.73;;;2.40;99.90;;;;;;6138743;23;20349;-93
2021/12/05 04:17:41;;;;;;;1.00;0.55;;;2.40;99.90;;;;;;6138820;22;20014;-93
2021/12/05 04:20:09;;;;;;;1.65;0.88;;;2.40;99.90;;;;;;6138287;23;20013;-95
2021/12/05 04:22:35;;;;;;;0.43;0.43;;;2.40;99.90;;;;;;6137377;23;20036;-94
2021/12/05 04:25:04;;;;;;;1.05;0.95;;;2.30;99.90;;;;;;6138710;23;20013;-95
2021/12/05 04:27:30;;;;;;;1.58;1.25;;;2.30;99.90;;;;;;6136947;22;20064;-94
2021/12/05 04:29:57;;;;;;;0.82;0.70;;;2.30;99.90;;;;;;6139437;22;20454;-92
2021/12/05 04:32:23;;;;;;;1.25;0.80;;;2.30;99.90;;;;;;6139905;23;20013;-93
2021/12/05 04:34:49;;;;;;;0.55;0.55;;;2.30;99.90;;;;;;6138269;23;20039;-92
2021/12/05 04:37:14;;;;;;;5.38;2.30;;;2.30;99.90;;;;;;6137299;23;20015;-92
2021/12/05 04:39:40;;;;;;;0.47;0.47;;;2.30;99.90;;;;;;6137346;23;20066;-93
2021/12/05 04:42:06;;;;;;;2.63;1.15;;;2.30;99.90;;;;;;6140061;23;20013;-95
2021/12/05 04:44:32;;;;;;;1.50;0.70;;;2.30;99.90;;;;;;6139891;23;20056;-94
2021/12/05 04:47:00;;;;;;;0.95;0.70;;;2.30;99.90;;;;;;6138720;23;20013;-94
2021/12/05 04:49:26;;;;;;;0.50;0.50;;;2.20;99.90;;;;;;6115143;23;20487;-92
2021/12/05 04:51:51;;;;;;;1.33;1.23;;;2.20;99.90;;;;;;6138603;23;20013;-93
2021/12/05 04:54:20;;;;;;;1.15;0.85;;;2.20;99.90;;;;;;6137069;23;20050;-93
2021/12/05 04:56:51;;;;;;;0.30;0.30;;;2.20;99.90;;;;;;6138560;23;20009;-94
2021/12/05 04:59:22;;;;;;;1.27;0.75;;;2.20;99.90;;;;;;6139403;23;20025;-94
2021/12/05 05:01:51;;;;;;;1.40;1.30;;;2.10;99.90;;;;;;6139694;23;20006;-95
2021/12/05 05:04:26;;;;;;;0.55;0.55;;;2.10;99.90;;;;;;6138000;23;20021;-93
2021/12/05 05:06:54;;;;;;;0.40;0.40;;;2.10;99.90;;;;;;6139296;23;20024;-94
2021/12/05 05:09:19;;;;;;;0.30;0.30;;;2.30;99.90;;;;;;6138367;23;20017;-95
2021/12/05 05:11:45;;;;;;;0.45;0.40;;;2.00;99.90;;;;;;6137746;23;20029;-94
2021/12/05 05:14:12;;;;;;;1.42;1.23;;;2.00;99.90;;;;;;6136996;23;20013;-94
2021/12/05 05:16:38;;;;;;;1.88;1.58;;;2.00;99.90;;;;;;6135891;23;20034;-95
2021/12/05 05:19:04;;;;;;;0.40;0.40;;;2.30;99.90;;;;;;6136913;23;20013;-95
2021/12/05 05:21:46;;;;;;;4.32;1.30;;;1.90;99.90;;;;;;6140269;23;20021;-92
2021/12/05 05:24:33;;;;;;;0.32;0.32;;;1.90;99.90;;;;;;6140034;23;20045;-95
2021/12/05 05:30:16;;;;;;;0.57;0.57;;;1.80;99.90;;;;;;6164071;23;20028;-95
2021/12/05 05:41:51;;;;;;;3.70;1.08;;;1.90;99.90;;;;;;6143201;23;20275;-95
2021/12/05 05:44:25;;;;;;;0.63;0.60;;;2.00;99.90;;;;;;6164365;22;20084;-94
2021/12/05 05:51:44;;;;;;;0.30;0.30;;;2.10;99.90;;;;;;6160261;23;20017;-94
2021/12/05 05:54:10;;;;;;;0.77;0.50;;;2.10;99.90;;;;;;6138390;23;20039;-94
2021/12/05 05:56:37;;;;;;;0.40;0.40;;;2.20;99.90;;;;;;6139364;23;20032;-94
2021/12/05 05:59:08;;;;;;;0.47;0.47;;;2.20;99.90;;;;;;6138616;23;20383;-92
2021/12/05 06:04:04;;;;;;;0.32;0.32;;;2.30;99.90;;;;;;6162784;23;20021;-94
2021/12/05 06:06:32;;;;;;;0.30;0.30;;;2.30;99.90;;;;;;6138219;23;20046;-95
2021/12/05 06:08:58;;;;;;;0.82;0.82;;;2.30;99.90;;;;;;6138054;23;20023;-95
2021/12/05 06:11:24;;;;;;;0.50;0.50;;;2.30;99.90;;;;;;6139052;23;20435;-94
2021/12/05 06:13:52;;;;;;;0.32;0.32;;;2.30;99.90;;;;;;6138175;22;20345;-94
2021/12/05 06:16:18;;;;;;;0.35;0.35;;;2.40;99.90;;;;;;6137892;23;20323;-94
2021/12/05 06:18:44;;;;;;;0.40;0.40;;;2.40;99.90;;;;;;6136886;23;20013;-94
2021/12/05 06:21:14;;;;;;;0.45;0.45;;;2.40;99.90;;;;;;6138285;23;20017;-95
2021/12/05 06:23:41;;;;;;;0.40;0.40;;;2.50;99.90;;;;;;6139578;22;20017;-94
2021/12/05 06:26:11;;;;;;;2.08;1.48;;;2.40;99.90;;;;;;6137626;23;20396;-93
2021/12/05 06:28:41;;;;;;;0.40;0.40;;;2.40;99.90;;;;;;6137304;23;20035;-95
2021/12/05 06:47:14;;;;;;;0.65;0.55;;;2.60;99.90;;;;;;6164191;22;20051;-92
2021/12/05 06:49:41;;;;;;;0.35;0.35;;;2.60;99.90;;;;;;6163244;23;20009;-94
2021/12/05 06:52:08;;;;;;;0.95;0.70;;;2.60;99.90;;;;;;6139824;23;20015;-93
2021/12/05 06:54:38;;;;;;;1.38;1.02;;;2.60;99.90;;;;;;6138971;23;20565;-93
2021/12/05 06:57:04;;;;;;;1.40;1.00;;;2.60;99.90;;;;;;6139863;23;20055;-94
2021/12/05 06:59:30;;;;;;;18.85;3.15;;;2.70;99.90;;;;;;6140094;23;20020;-95
2021/12/05 07:01:56;;;;;;;0.50;0.50;;;2.70;99.90;;;;;;6139711;23;20009;-94
2021/12/05 07:04:48;;;;;;;0.50;0.50;;;2.70;99.90;;;;;;6139808;23;20016;-94
2021/12/05 07:07:21;;;;;;;0.30;0.30;;;2.80;99.90;;;;;;6138512;23;20041;-94
2021/12/05 07:09:48;;;;;;;0.40;0.40;;;2.80;99.90;;;;;;6137871;23;20084;-94
2021/12/05 07:12:59;;;;;;;0.40;0.40;;;2.80;99.90;;;;;;6138921;23;20023;-94
2021/12/05 07:15:40;;;;;;;3.08;2.80;;;2.80;99.90;;;;;;6163081;22;20100;-95
2021/12/05 07:23:49;;;;;;;0.40;0.40;;;2.80;99.90;;;;;;6165740;23;20070;-94
2021/12/05 07:40:28;;;;;;;0.70;0.65;;;2.90;99.90;;;;;;6161302;22;20057;-94
2021/12/05 07:43:07;;;;;;;0.40;0.40;;;2.90;99.90;;;;;;6137206;23;20092;-95
2021/12/05 07:45:43;;;;;;;0.40;0.40;;;3.00;99.90;;;;;;6136991;23;20024;-96
2021/12/05 07:48:15;;;;;;;0.50;0.50;;;3.00;99.90;;;;;;6135451;23;20059;-95
2021/12/05 07:50:54;;;;;;;1.23;1.13;;;3.00;99.90;;;;;;6138266;23;20023;-93
2021/12/05 07:54:10;;;;;;;0.40;0.40;;;3.10;99.90;;;;;;6138705;23;20073;-92
2021/12/05 07:56:13;;;;;;;0.88;0.68;;;3.50;99.90;;;;;;6155898;22;20021;-91
2021/12/05 08:16:57;;;;;;;1.20;1.08;;;3.30;99.90;;;;;;6160468;22;20017;-93
2021/12/05 08:19:22;;;;;;;1.00;0.93;;;3.20;99.90;;;;;;6136163;23;20341;-93
2021/12/05 08:21:55;;;;;;;0.38;0.38;;;3.30;99.90;;;;;;6133911;23;20052;-95
2021/12/05 08:24:21;;;;;;;0.73;0.70;;;3.50;99.90;;;;;;6162624;23;20017;-94
2021/12/05 08:26:49;;;;;;;1.67;1.10;;;3.30;99.90;;;;;;6138840;23;20028;-94
2021/12/05 08:29:19;;;;;;;2.45;0.75;;;3.30;99.90;;;;;;6138952;23;20027;-93
2021/12/05 09:23:35;;;;;;;0.30;0.30;;;3.50;99.90;;;;;;6159025;22;20103;-93
2021/12/05 10:01:53;;;;;;;0.40;0.40;;;3.70;99.90;;;;;;6163197;23;20022;-94
2021/12/05 10:01:56;;;;;;;0.32;0.32;;;3.70;99.90;;;;;;6163653;23;20070;-95
2021/12/05 10:09:41;;;;;;;0.38;0.30;;;4.00;99.90;;;;;;6267986;22;20020;-94
2021/12/05 10:15:36;;;;;;;0.52;0.52;;;4.60;99.90;;;;;;6159959;23;20043;-92
2021/12/05 10:26:35;;;;;;;0.40;0.40;;;3.80;99.90;;;;;;6166454;22;20044;-96
2021/12/05 10:38:00;;;;;;;0.30;0.30;;;3.90;99.90;;;;;;6159743;23;20017;-95
2021/12/05 10:40:42;;;;;;;0.35;0.35;;;3.90;99.90;;;;;;6140056;23;20017;-96
2021/12/05 10:43:20;;;;;;;0.40;0.40;;;3.90;99.90;;;;;;6140771;23;20218;-96
2021/12/05 10:45:54;;;;;;;0.40;0.40;;;4.00;99.90;;;;;;6138716;23;20076;-95
2021/12/05 10:48:30;;;;;;;0.50;0.50;;;4.00;99.90;;;;;;6142184;23;20013;-96
2021/12/05 10:51:06;;;;;;;0.40;0.40;;;6.00;99.90;;;;;;6138205;23;20021;-96
2021/12/05 10:53:43;;;;;;;1.65;1.05;;;4.00;99.90;;;;;;6138250;23;20089;-96
2021/12/05 10:56:16;;;;;;;0.55;0.55;;;4.00;99.90;;;;;;6139524;23;20018;-95
2021/12/05 10:58:54;;;;;;;1.38;0.90;;;4.00;99.90;;;;;;6139716;23;20350;-95
2021/12/05 11:01:31;;;;;;;0.40;0.40;;;4.10;99.90;;;;;;6137188;23;20009;-95
2021/12/05 11:04:10;;;;;;;0.77;0.50;;;4.10;99.90;;;;;;6140165;22;20084;-93
2021/12/05 11:06:57;;;;;;;0.40;0.40;;;4.10;99.90;;;;;;6136949;22;20013;-96
2021/12/05 11:09:44;;;;;;;0.65;0.60;;;4.20;99.90;;;;;;6138046;23;20020;-94
2021/12/05 11:12:23;;;;;;;0.40;0.40;;;3.70;99.90;;;;;;6139536;23;20009;-94
2021/12/05 11:14:51;;;;;;;0.47;0.47;;;4.30;99.90;;;;;;6136637;23;20017;-95
2021/12/05 11:17:21;;;;;;;0.30;0.30;;;4.40;99.90;;;;;;6138248;23;20115;-94
2021/12/05 11:19:53;;;;;;;0.85;0.52;;;4.40;99.90;;;;;;6165884;22;20013;-91
2021/12/05 11:22:32;;;;;;;0.88;0.70;;;4.50;99.90;;;;;;6141763;23;20009;-94
2021/12/05 11:25:04;;;;;;;0.57;0.50;;;4.60;99.90;;;;;;6141357;23;20032;-94
2021/12/05 11:27:41;;;;;;;1.27;0.95;;;3.90;99.90;;;;;;6141443;23;20017;-93
2021/12/05 11:30:13;;;;;;;0.30;0.30;;;4.80;99.90;;;;;;6141820;23;20024;-95
2021/12/05 11:32:47;;;;;;;0.40;0.40;;;4.90;99.90;;;;;;6139864;22;20063;-96
2021/12/05 11:35:25;;;;;;;0.40;0.40;;;5.00;99.90;;;;;;6164699;23;20391;-95
2021/12/05 11:38:03;;;;;;;1.23;0.90;;;5.00;99.90;;;;;;6141414;23;20005;-94
2021/12/05 11:40:54;;;;;;;1.00;0.65;;;5.10;99.90;;;;;;6140334;23;20024;-94
2021/12/05 11:43:24;;;;;;;5.28;1.70;;;6.00;99.90;;;;;;6139959;22;20307;-95
2021/12/05 11:45:55;;;;;;;0.30;0.30;;;5.40;99.90;;;;;;6140302;23;20032;-93
2021/12/05 11:48:28;;;;;;;0.30;0.30;;;5.10;99.90;;;;;;6138385;22;20020;-95
2021/12/05 11:50:54;;;;;;;0.43;0.43;;;5.30;99.90;;;;;;6139499;23;20023;-96
2021/12/05 11:54:13;;;;;;;1.60;1.50;;;6.50;99.90;;;;;;6140436;22;20028;-96
2021/12/05 11:56:56;;;;;;;0.40;0.40;;;5.30;99.90;;;;;;6139793;23;20096;-94
2021/12/05 11:59:33;;;;;;;0.40;0.40;;;5.40;99.90;;;;;;6134331;22;20013;-96
2021/12/05 12:02:16;;;;;;;0.20;0.20;;;5.40;99.90;;;;;;6138560;23;20043;-96
2021/12/05 12:04:59;;;;;;;0.40;0.40;;;4.40;99.90;;;;;;6138166;23;20070;-96
2021/12/05 12:07:36;;;;;;;0.32;0.32;;;5.30;99.90;;;;;;6139434;23;20013;-95
2021/12/05 12:10:10;;;;;;;0.40;0.40;;;5.30;99.90;;;;;;6139098;23;20039;-96
2021/12/05 12:12:41;;;;;;;0.40;0.40;;;5.40;99.90;;;;;;6138752;23;20384;-96
2021/12/05 12:15:08;;;;;;;1.30;0.93;;;5.30;99.90;;;;;;6139768;23;20021;-95
2021/12/05 12:17:34;;;;;;;0.60;0.60;;;5.30;99.90;;;;;;6139239;23;20020;-96
2021/12/05 12:20:01;;;;;;;0.60;0.60;;;4.80;99.90;;;;;;6139094;23;20013;-96
2021/12/05 12:22:27;;;;;;;0.30;0.30;;;5.30;99.90;;;;;;6140033;23;20036;-94
2021/12/05 12:25:00;;;;;;;0.40;0.40;;;5.30;99.90;;;;;;6140499;23;20024;-94
2021/12/05 12:27:27;;;;;;;0.60;0.50;;;5.20;99.90;;;;;;6138820;23;20024;-96
2021/12/05 12:30:00;;;;;;;2.75;1.30;;;6.10;99.90;;;;;;6139679;23;20017;-96
2021/12/05 12:32:32;;;;;;;0.98;0.68;;;5.20;99.90;;;;;;6138098;23;20070;-96
2021/12/05 12:35:09;;;;;;;2.55;1.38;;;5.40;99.90;;;;;;6134482;23;20013;-96
2021/12/05 12:37:55;;;;;;;1.40;0.85;;;5.10;99.90;;;;;;6138205;23;20009;-95
2021/12/05 12:40:34;;;;;;;0.32;0.32;;;5.10;99.90;;;;;;6135593;23;20442;-93
2021/12/05 12:43:00;;;;;;;0.25;0.25;;;5.10;99.90;;;;;;6138653;23;20013;-93
2021/12/05 12:45:27;;;;;;;1.55;1.00;;;4.90;99.90;;;;;;6137705;23;20048;-95
2021/12/05 12:47:58;;;;;;;0.75;0.75;;;5.00;99.90;;;;;;6138603;23;20023;-95
2021/12/05 12:50:38;;;;;;;0.60;0.60;;;5.00;99.90;;;;;;6115361;23;20052;-94
2021/12/05 12:53:17;;;;;;;2.50;1.23;;;4.90;99.90;;;;;;6140705;23;20069;-94
2021/12/05 12:55:54;;;;;;;4.43;2.42;;;5.20;99.90;;;;;;6138664;23;20153;-95
2021/12/05 12:58:35;;;;;;;1.55;1.40;;;4.90;99.90;;;;;;6137949;23;20017;-95
2021/12/05 13:01:20;;;;;;;1.85;1.02;;;5.30;99.90;;;;;;6141282;23;20377;-94
2021/12/05 13:04:36;;;;;;;0.55;0.55;;;4.80;99.90;;;;;;6140939;23;20025;-92
2021/12/05 13:07:23;;;;;;;0.47;0.47;;;4.80;99.90;;;;;;6141335;22;20454;-96
2021/12/05 13:10:05;;;;;;;2.05;1.33;;;4.80;99.90;;;;;;6140263;23;20020;-96
2021/12/05 13:12:44;;;;;;;1.35;1.05;;;4.90;99.90;;;;;;6140284;23;20070;-95
2021/12/05 13:15:34;;;;;;;0.60;0.60;;;5.40;99.90;;;;;;6141148;23;20059;-95
2021/12/05 13:18:15;;;;;;;3.00;1.40;;;4.70;99.90;;;;;;6138871;23;20013;-95
2021/12/05 13:20:41;;;;;;;1.42;0.90;;;5.10;99.90;;;;;;6137845;23;20013;-96
2021/12/05 13:23:30;;;;;;;0.90;0.82;;;5.70;99.90;;;;;;6136117;23;20048;-94
2021/12/05 13:26:02;;;;;;;0.82;0.80;;;4.70;99.90;;;;;;6138161;23;20013;-95
2021/12/05 13:28:42;;;;;;;1.25;1.15;;;4.80;99.90;;;;;;6137384;23;20027;-94
2021/12/05 13:31:26;;;;;;;1.15;0.80;;;4.80;99.90;;;;;;6136723;23;20073;-94
2021/12/05 13:34:32;;;;;;;0.30;0.30;;;4.80;99.90;;;;;;6139215;23;20051;-96
2021/12/05 13:37:06;;;;;;;1.77;1.30;;;4.80;99.90;;;;;;6136847;23;20040;-95
2021/12/05 13:39:52;;;;;;;2.63;1.58;;;5.80;99.90;;;;;;6138984;23;20064;-95
2021/12/05 13:42:22;;;;;;;;;;;4.90;99.90;;;;;;6139342;22;20024;-95
2021/12/05 13:45:03;;;;;;;0.55;0.55;;;4.90;99.90;;;;;;6137310;22;19916;-93
2021/12/05 13:48:07;;;;;;;0.50;0.50;;;4.90;99.90;;;;;;6139773;23;20013;-94
2021/12/05 13:50:56;;;;;;;0.38;0.38;;;4.80;99.90;;;;;;6139315;23;20017;-96
2021/12/05 13:53:26;;;;;;;0.40;0.40;;;4.80;99.90;;;;;;6138387;23;20013;-96
2021/12/05 13:55:59;;;;;;;0.80;0.68;;;4.80;99.90;;;;;;6140256;23;20054;-96
2021/12/05 13:58:44;;;;;;;1.55;0.82;;;4.80;99.90;;;;;;6139246;23;20067;-95
2021/12/05 14:01:31;;;;;;;0.40;0.40;;;4.80;99.90;;;;;;6139430;22;20009;-93
2021/12/05 14:04:08;;;;;;;0.50;0.50;;;5.00;99.90;;;;;;6140026;23;20013;-96
2021/12/05 14:06:33;;;;;;;0.50;0.50;;;4.80;99.90;;;;;;6137404;23;20024;-94
2021/12/05 14:09:22;;;;;;;0.40;0.40;;;4.80;99.90;;;;;;6138296;23;20013;-96
2021/12/05 14:11:56;;;;;;;1.40;1.00;;;4.70;99.90;;;;;;6139860;22;20028;-95
2021/12/05 14:14:37;;;;;;;0.63;0.63;;;4.90;99.90;;;;;;6140379;23;20476;-95
2021/12/05 14:17:07;;;;;;;0.77;0.77;;;4.80;99.90;;;;;;6138515;22;20013;-96
2021/12/05 14:19:35;;;;;;;1.15;1.00;;;4.70;99.90;;;;;;6137841;23;20035;-95
2021/12/05 14:22:04;;;;;;;1.38;1.05;;;4.80;99.90;;;;;;6138260;23;20066;-93
2021/12/05 14:24:34;;;;;;;0.75;0.75;;;4.80;99.90;;;;;;6135290;23;20096;-95
2021/12/05 14:27:04;;;;;;;1.85;1.05;;;4.90;99.90;;;;;;6135518;22;20088;-94
2021/12/05 14:29:33;;;;;;;0.82;0.77;;;4.70;99.90;;;;;;6138377;23;20047;-96
2021/12/05 14:32:03;;;;;;;0.75;0.63;;;4.70;99.90;;;;;;6138008;23;20017;-95
2021/12/05 14:34:29;;;;;;;0.28;0.28;;;4.80;99.90;;;;;;6136658;23;20039;-94
2021/12/05 14:36:59;;;;;;;0.32;0.32;;;4.70;99.90;;;;;;6136573;23;20013;-95
2021/12/05 14:39:35;;;;;;;0.50;0.50;;;4.70;99.90;;;;;;6138415;23;20013;-95
2021/12/05 14:42:10;;;;;;;;;;;4.70;99.90;;;;;;6138757;23;20028;-93
2021/12/05 14:44:38;;;;;;;0.57;0.57;;;4.70;99.90;;;;;;6139254;23;19912;-92
2021/12/05 14:47:07;;;;;;;0.50;0.50;;;4.60;99.90;;;;;;6139566;23;20302;-95
2021/12/05 14:49:37;;;;;;;0.50;0.50;;;4.60;99.90;;;;;;6139730;23;20062;-94
2021/12/05 14:52:06;;;;;;;0.30;0.30;;;4.60;99.90;;;;;;6140205;23;20013;-94
2021/12/05 14:54:36;;;;;;;0.32;0.32;;;4.50;99.90;;;;;;6138986;23;20025;-94
2021/12/05 14:57:33;;;;;;;1.70;1.02;;;4.50;99.90;;;;;;6139274;23;20014;-96
2021/12/05 15:00:10;;;;;;;1.10;0.88;;;4.40;99.90;;;;;;6137203;22;20021;-96
2021/12/05 15:02:36;;;;;;;0.75;0.70;;;4.40;99.90;;;;;;6141141;23;20013;-94
2021/12/05 15:05:07;;;;;;;0.73;0.70;;;4.60;99.90;;;;;;6140978;22;20024;-95
2021/12/05 15:07:32;;;;;;;2.08;1.13;;;4.30;99.90;;;;;;6139356;23;20055;-93
2021/12/05 15:09:59;;;;;;;4.20;1.35;;;4.30;99.90;;;;;;6137262;23;20050;-93
2021/12/05 15:12:27;;;;;;;0.40;0.40;;;4.30;99.90;;;;;;6139218;23;20480;-94
2021/12/05 15:14:56;;;;;;;1.45;1.15;;;4.30;99.90;;;;;;6138905;23;20028;-94
2021/12/05 15:17:35;;;;;;;0.65;0.55;;;4.30;99.90;;;;;;6138630;23;20021;-96
2021/12/05 15:20:09;;;;;;;0.30;0.30;;;4.30;99.90;;;;;;6140681;23;20099;-96
2021/12/05 15:22:36;;;;;;;0.50;0.50;;;4.20;99.90;;;;;;6139019;23;20401;-96
2021/12/05 15:25:06;;;;;;;0.30;0.30;;;4.20;99.90;;;;;;6137387;23;20028;-94
2021/12/05 15:27:33;;;;;;;0.60;0.55;;;4.20;99.90;;;;;;6139096;23;20444;-93
2021/12/05 15:30:36;;;;;;;1.35;0.93;;;4.20;99.90;;;;;;6140189;23;20023;-95
2021/12/05 15:33:07;;;;;;;0.70;0.57;;;4.20;99.90;;;;;;6139303;22;20028;-95
2021/12/05 15:35:38;;;;;;;1.17;0.98;;;4.20;99.90;;;;;;6137771;23;20442;-95
2021/12/05 15:38:08;;;;;;;0.70;0.70;;;4.20;99.90;;;;;;6114815;23;20025;-95
2021/12/05 15:40:36;;;;;;;0.40;0.40;;;4.00;99.90;;;;;;6162489;22;20020;-96
2021/12/05 15:43:07;;;;;;;0.40;0.40;;;4.20;99.90;;;;;;6140346;23;20013;-95
2021/12/05 15:45:34;;;;;;;0.95;0.68;;;4.20;99.90;;;;;;6137820;23;20013;-94
2021/12/05 15:48:00;;;;;;;0.40;0.40;;;4.00;99.90;;;;;;6137707;23;20017;-95
2021/12/05 15:50:27;;;;;;;0.40;0.40;;;4.20;99.90;;;;;;6136976;23;20108;-94
2021/12/05 15:52:59;;;;;;;0.30;0.30;;;3.50;99.90;;;;;;6136378;23;20438;-95
2021/12/05 15:55:30;;;;;;;0.40;0.40;;;4.20;99.90;;;;;;6137345;23;20024;-95
2021/12/05 15:58:12;;;;;;;0.40;0.40;;;4.10;99.90;;;;;;6113479;23;20023;-95
2021/12/05 16:00:47;;;;;;;0.40;0.40;;;4.10;99.90;;;;;;6136654;22;20338;-96
2021/12/05 16:03:18;;;;;;;0.30;0.30;;;4.10;99.90;;;;;;6161083;23;20104;-94
2021/12/05 16:05:53;;;;;;;0.40;0.40;;;4.10;99.90;;;;;;6133231;22;20066;-95
2021/12/05 16:08:19;;;;;;;0.30;0.30;;;4.00;99.90;;;;;;6135381;23;20017;-92
2021/12/05 16:10:51;;;;;;;0.30;0.30;;;4.20;99.90;;;;;;6134163;23;20032;-92
2021/12/05 16:13:33;;;;;;;0.30;0.30;;;4.10;99.90;;;;;;6137388;23;20027;-94
2021/12/05 16:16:22;;;;;;;0.38;0.38;;;4.00;99.90;;;;;;6136826;22;20017;-94
2021/12/05 16:18:51;;;;;;;0.40;0.40;;;4.10;99.90;;;;;;6135796;23;20024;-93
2021/12/05 16:21:20;;;;;;;0.30;0.30;;;4.00;99.90;;;;;;6136079;22;20009;-95
2021/12/05 16:23:48;;;;;;;0.40;0.40;;;4.00;99.90;;;;;;6135914;23;20076;-95
2021/12/05 16:26:19;;;;;;;0.30;0.30;;;4.10;99.90;;;;;;6136017;22;20017;-93
2021/12/05 16:29:06;;;;;;;0.30;0.30;;;4.00;99.90;;;;;;6134259;23;20060;-96
2021/12/05 16:31:35;;;;;;;2.25;2.05;;;4.10;99.90;;;;;;6136982;22;20013;-92
2021/12/05 16:34:17;;;;;;;0.70;0.47;;;4.20;99.90;;;;;;6136338;23;20112;-94
2021/12/05 16:36:47;;;;;;;0.68;0.68;;;4.00;99.90;;;;;;6136655;22;20013;-94
2021/12/05 16:39:16;;;;;;;0.30;0.30;;;4.00;99.90;;;;;;6159824;22;20017;-94
2021/12/05 16:41:54;;;;;;;0.30;0.30;;;5.00;99.90;;;;;;6136415;23;20070;-93
2021/12/05 16:44:23;;;;;;;0.60;0.60;;;4.00;99.90;;;;;;6137076;22;20017;-95
2021/12/05 16:46:58;;;;;;;3.42;1.95;;;4.00;99.90;;;;;;6134912;22;20028;-95
2021/12/05 16:49:28;;;;;;;0.38;0.38;;;4.10;99.90;;;;;;6137687;23;20019;-94
2021/12/05 16:52:01;;;;;;;0.30;0.30;;;4.10;99.90;;;;;;6136189;23;20638;-95
2021/12/05 16:54:46;;;;;;;0.30;0.30;;;4.10;99.90;;;;;;6136504;23;20112;-94
2021/12/05 16:57:14;;;;;;;0.60;0.47;;;4.10;99.90;;;;;;6136890;23;20456;-94
2021/12/05 16:59:47;;;;;;;0.35;0.35;;;4.10;99.90;;;;;;6135809;23;20016;-89
2021/12/05 17:02:29;;;;;;;1.08;0.98;;;4.10;99.90;;;;;;6131501;23;20031;-90
2021/12/05 17:05:05;;;;;;;0.40;0.40;;;4.10;99.90;;;;;;6128237;22;20024;-91
2021/12/05 17:07:56;;;;;;;0.35;0.35;;;4.80;99.90;;;;;;6129409;22;20028;-91
2021/12/05 17:10:25;;;;;;;1.35;1.25;;;4.10;99.90;;;;;;6129248;22;20032;-93
2021/12/05 17:13:15;;;;;;;1.90;0.90;;;4.50;99.90;;;;;;6128436;23;20021;-89
2021/12/05 17:16:12;;;;;;;0.30;0.30;;;4.00;99.90;;;;;;6152779;23;20025;-93
2021/12/05 17:19:13;;;;;;;1.15;0.80;;;4.00;99.90;;;;;;6134049;22;20020;-94
2021/12/05 17:21:50;;;;;;;0.30;0.30;;;3.90;99.90;;;;;;6132925;23;20025;-91
2021/12/05 17:24:29;;;;;;;0.40;0.40;;;4.60;99.90;;;;;;6128985;22;20016;-94
2021/12/05 17:26:56;;;;;;;1.85;1.35;;;4.10;99.90;;;;;;6130481;23;20092;-91
2021/12/05 17:29:34;;;;;;;1.27;1.17;;;4.00;99.90;;;;;;6134623;23;20020;-94
2021/12/05 17:32:12;;;;;;;2.63;1.20;;;4.00;99.90;;;;;;6132847;22;20016;-94
2021/12/05 17:34:49;;;;;;;4.10;2.40;;;4.00;99.90;;;;;;6158049;22;20025;-94
2021/12/05 17:37:22;;;;;;;0.90;0.77;;;4.00;99.90;;;;;;6134086;23;20017;-95
2021/12/05 17:39:49;;;;;;;0.30;0.30;;;4.00;99.90;;;;;;6158403;23;20024;-94
2021/12/05 17:42:25;;;;;;;0.85;0.85;;;4.60;99.90;;;;;;6129724;23;20032;-93
2021/12/05 17:44:54;;;;;;;0.40;0.40;;;4.00;99.90;;;;;;6131370;23;20353;-95
2021/12/05 17:47:21;;;;;;;1.52;1.30;;;3.80;99.90;;;;;;6132439;23;20020;-95
2021/12/05 17:49:53;;;;;;;0.30;0.30;;;4.10;99.90;;;;;;6132236;23;20025;-96
2021/12/05 17:52:22;;;;;;;0.30;0.30;;;4.10;99.90;;;;;;6133109;22;20146;-94
2021/12/05 17:57:20;;;;;;;19.38;3.80;;;4.10;99.90;;;;;;6158239;23;20047;-92
2021/12/05 18:02:45;;;;;;;0.70;0.70;;;4.00;99.90;;;;;;6159142;23;20021;-95
2021/12/05 18:05:27;;;;;;;1.52;1.25;;;4.40;99.90;;;;;;6158522;23;20074;-95
2021/12/05 18:08:00;;;;;;;2.15;1.35;;;4.00;99.90;;;;;;6134934;23;20016;-96
2021/12/05 18:10:30;;;;;;;0.45;0.45;;;3.90;99.90;;;;;;6133907;23;20052;-95
2021/12/05 18:12:59;;;;;;;1.52;1.42;;;4.00;99.90;;;;;;6111032;23;20111;-96
2021/12/05 18:15:29;;;;;;;1.00;0.73;;;3.90;99.90;;;;;;6134268;23;20021;-95
2021/12/05 18:17:58;;;;;;;0.30;0.30;;;3.90;99.90;;;;;;6138910;22;20024;-93
2021/12/05 18:20:27;;;;;;;0.30;0.30;;;3.90;99.90;;;;;;6139716;23;20017;-93
2021/12/05 18:22:55;;;;;;;0.40;0.40;;;4.50;99.90;;;;;;6134964;22;20017;-93
2021/12/05 18:25:22;;;;;;;0.50;0.50;;;3.90;99.90;;;;;;6135624;23;20079;-94
2021/12/05 18:27:48;;;;;;;0.50;0.50;;;3.90;99.90;;;;;;6107210;23;20043;-92
2021/12/05 18:30:16;;;;;;;0.45;0.45;;;3.90;99.90;;;;;;6132720;23;20021;-92